createdAt,value
2023-04-11T04:34:29.220Z,5.56
2023-04-11T04:37:32.402Z,5.56
2023-04-11T04:40:40.230Z,5.27
2023-04-11T04:43:43.944Z,5.15
2023-04-11T04:46:46.540Z,5.36
2023-04-11T04:49:49.139Z,5.28
2023-04-11T04:52:51.727Z,5.46
2023-04-11T04:55:54.270Z,5.95
2023-04-11T04:58:57.543Z,5.72
2023-04-11T05:02:00.467Z,6.27
2023-04-11T05:05:04.449Z,6.03
2023-04-11T05:08:07.145Z,6.06
2023-04-11T05:11:09.708Z,6.12
2023-04-11T05:14:12.246Z,6.52
2023-04-11T05:17:14.847Z,6.55
2023-04-11T05:20:17.461Z,6.66
2023-04-11T05:23:20.078Z,6.92
2023-04-11T05:26:22.699Z,7.16
2023-04-11T05:29:25.223Z,7.11
2023-04-11T05:32:27.811Z,7.58
2023-04-11T05:35:30.478Z,7.85
2023-04-11T05:38:35.775Z,8.15
2023-04-11T05:41:38.179Z,8.31
2023-04-11T05:44:40.609Z,8.35
2023-04-11T05:47:43.227Z,8.55
2023-04-11T05:50:50.149Z,8.74
2023-04-11T05:53:52.651Z,8.99
2023-04-11T05:56:55.199Z,9.20
2023-04-11T05:59:57.822Z,9.34
2023-04-11T06:03:00.663Z,9.68
2023-04-11T06:06:03.419Z,9.65
2023-04-11T06:09:06.046Z,9.90
2023-04-11T06:12:09.174Z,9.77
2023-04-11T06:15:14.706Z,9.96
2023-04-11T06:18:17.302Z,10.32
2023-04-11T06:21:19.810Z,10.51
2023-04-11T06:24:37.723Z,10.59
2023-04-11T06:27:40.610Z,10.93
2023-04-11T06:30:43.172Z,11.08
2023-04-11T06:33:45.788Z,11.27
2023-04-11T06:36:50.015Z,11.42
2023-04-11T06:39:52.576Z,11.45
2023-04-11T06:42:58.011Z,11.68
2023-04-11T06:46:00.699Z,11.62
2023-04-11T06:49:03.584Z,11.54
2023-04-11T06:52:06.176Z,11.68
2023-04-11T06:55:10.273Z,12.09
2023-04-11T06:58:12.869Z,12.29
2023-04-11T07:01:15.986Z,12.27
2023-04-11T07:04:18.894Z,12.53
2023-04-11T07:07:21.578Z,12.44
2023-04-11T07:10:25.304Z,12.59
2023-04-11T07:13:27.996Z,12.69
2023-04-11T07:16:30.668Z,12.76
2023-04-11T07:19:33.359Z,12.93
2023-04-11T07:22:38.778Z,13.05
2023-04-11T07:25:41.429Z,13.06
2023-04-11T07:28:45.217Z,13.25
2023-04-11T07:31:48.067Z,13.17
2023-04-11T07:34:51.014Z,13.49
2023-04-11T07:37:53.886Z,13.38
2023-04-11T07:40:57.111Z,13.75
2023-04-11T07:43:59.700Z,14.00
2023-04-11T07:47:02.302Z,14.18
2023-04-11T07:50:05.485Z,14.26
2023-04-11T07:53:11.249Z,14.30
2023-04-11T07:56:15.171Z,14.68
2023-04-11T07:59:17.806Z,14.60
2023-04-11T08:02:20.500Z,14.53
2023-04-11T08:05:23.374Z,14.72
2023-04-11T08:08:26.593Z,14.65
2023-04-11T08:11:29.155Z,14.85
2023-04-11T08:14:31.787Z,14.64
2023-04-11T08:17:38.206Z,14.69
2023-04-11T08:20:41.014Z,14.82
2023-04-11T08:23:43.716Z,14.71
2023-04-11T08:26:46.740Z,14.89
2023-04-11T08:29:50.019Z,15.12
2023-04-11T08:32:52.714Z,15.14
2023-04-11T08:35:55.282Z,15.19
2023-04-11T08:39:00.286Z,15.25
2023-04-11T08:42:03.233Z,15.53
2023-04-11T08:45:08.716Z,15.23
2023-04-11T08:48:12.656Z,15.22
2023-04-11T08:51:22.376Z,15.36
2023-04-11T08:54:24.939Z,14.98
2023-04-11T08:57:28.703Z,15.11
2023-04-11T09:00:32.666Z,15.17
2023-04-11T09:03:50.614Z,15.17
2023-04-11T09:06:57.451Z,15.43
2023-04-11T09:10:19.091Z,15.64
2023-04-11T09:13:26.128Z,15.52
2023-04-11T09:16:28.829Z,15.51
2023-04-11T09:19:33.366Z,15.72
2023-04-11T09:22:36.652Z,15.88
2023-04-11T09:25:45.446Z,15.86
2023-04-11T09:28:54.519Z,15.30
2023-04-11T09:31:57.260Z,15.64
2023-04-11T09:35:11.840Z,15.84
2023-04-11T09:38:14.403Z,15.73
2023-04-11T09:41:31.676Z,15.64
2023-04-11T09:44:37.606Z,15.68
2023-04-11T09:47:40.889Z,15.38
2023-04-11T09:50:44.452Z,15.51
2023-04-11T09:53:47.138Z,15.81
2023-04-11T09:56:50.427Z,15.88
2023-04-11T09:59:53.583Z,15.81
2023-04-11T10:02:56.452Z,16.10
2023-04-11T10:05:59.098Z,16.20
2023-04-11T10:09:09.818Z,16.18
2023-04-11T10:12:12.526Z,15.57
2023-04-11T10:15:15.437Z,16.15
2023-04-11T10:18:17.970Z,15.83
2023-04-11T10:21:36.646Z,16.02
2023-04-11T10:24:39.256Z,16.18
2023-04-11T10:28:00.840Z,15.83
2023-04-11T10:31:09.140Z,15.91
2023-04-11T10:34:15.974Z,16.13
2023-04-11T10:37:19.304Z,16.21
2023-04-11T10:40:22.379Z,16.27
2023-04-11T10:43:24.948Z,16.07
2023-04-11T10:46:27.538Z,15.98
2023-04-11T10:49:34.779Z,16.29
2023-04-11T10:52:37.771Z,16.42
2023-04-11T10:55:47.286Z,16.55
2023-04-11T10:58:51.944Z,16.71
2023-04-11T11:02:01.783Z,16.74
2023-04-11T11:05:15.331Z,16.67
2023-04-11T11:08:30.672Z,16.88
2023-04-11T11:11:33.206Z,17.00
2023-04-11T11:14:36.161Z,16.68
2023-04-11T11:17:38.712Z,16.66
2023-04-11T11:20:41.409Z,16.53
2023-04-11T11:24:00.103Z,16.59
2023-04-11T11:27:02.800Z,16.75
2023-04-11T11:30:12.176Z,17.04
2023-04-11T11:33:18.957Z,17.22
2023-04-11T11:36:22.329Z,17.35
2023-04-11T11:39:24.935Z,17.13
2023-04-11T11:42:28.118Z,17.15
2023-04-11T11:45:35.850Z,16.81
2023-04-11T11:48:38.548Z,16.95
2023-04-11T11:51:44.198Z,17.16
2023-04-11T11:54:47.417Z,17.18
2023-04-11T11:57:50.360Z,17.39
2023-04-11T12:00:53.170Z,17.50
2023-04-11T12:03:56.187Z,17.41
2023-04-11T12:07:08.400Z,17.26
2023-04-11T12:10:14.561Z,17.23
2023-04-11T12:13:25.397Z,17.19
2023-04-11T12:16:28.554Z,17.21
2023-04-11T12:19:31.190Z,17.39
2023-04-11T12:22:34.265Z,17.57
2023-04-11T12:25:37.026Z,17.35
2023-04-11T12:28:39.559Z,17.11
2023-04-11T12:31:43.769Z,17.04
2023-04-11T12:34:47.111Z,17.10
2023-04-11T12:37:49.634Z,17.25
2023-04-11T12:41:00.346Z,17.30
2023-04-11T12:44:12.178Z,17.26
2023-04-11T12:47:15.233Z,17.19
2023-04-11T12:50:17.973Z,17.46
2023-04-11T12:53:20.664Z,17.56
2023-04-11T12:56:23.271Z,17.66
2023-04-11T12:59:26.703Z,17.96
2023-04-11T13:02:33.055Z,17.86
2023-04-11T13:05:41.239Z,17.50
2023-04-11T13:08:43.817Z,17.62
2023-04-11T13:11:46.454Z,17.39
2023-04-11T13:14:49.086Z,16.95
2023-04-11T13:17:51.708Z,17.19
2023-04-11T13:20:54.298Z,17.39
2023-04-11T13:23:56.879Z,17.37
2023-04-11T13:26:59.513Z,17.56
2023-04-11T13:30:04.028Z,17.72
2023-04-11T13:33:06.662Z,17.44
2023-04-11T13:36:09.967Z,17.69
2023-04-11T13:39:13.760Z,17.54
2023-04-11T13:42:16.428Z,17.55
2023-04-11T13:45:19.073Z,17.38
2023-04-11T13:48:21.598Z,17.41
2023-04-11T13:51:24.154Z,17.20
2023-04-11T13:54:26.685Z,17.30
2023-04-11T13:57:29.203Z,17.43
2023-04-11T14:00:31.816Z,17.56
2023-04-11T14:03:34.801Z,17.57
2023-04-11T14:06:37.730Z,17.48
2023-04-11T14:09:40.272Z,17.42
2023-04-11T14:12:42.823Z,17.38
2023-04-11T14:15:49.525Z,17.39
2023-04-11T14:18:52.471Z,17.20
2023-04-11T14:21:55.334Z,17.17
2023-04-11T14:24:58.271Z,17.25
2023-04-11T14:28:00.794Z,17.32
2023-04-11T14:31:03.619Z,17.28
2023-04-11T14:34:06.303Z,17.28
